Time;durP1;ratioP1;P1;durP2;ratioP2;P2;SDS_P1;SDS_P2;PMS_P1;PMS_P2;Temp;Humidity;BMP_temperature;BMP_pressure;BME280_temperature;BME280_humidity;BME280_pressure;Samples;Min_cycle;Max_cycle;Signal;HPM_P1;HPM_P2
2023/03/04 00:02:07;;;;;;;5.22;4.43;;;;;;;;;;4489211;28;20088;-60
2023/03/04 00:04:18;;;;;;;4.95;3.90;;;;;;;;;;4490786;28;20126;-60
2023/03/04 00:06:28;;;;;;;5.43;4.30;;;;;;;;;;4490404;28;20056;-60
2023/03/04 00:08:38;;;;;;;5.50;4.22;;;;;;;;;;4491098;28;20029;-60
2023/03/04 00:10:49;;;;;;;6.40;4.75;;;;;;;;;;4490103;28;20334;-60
2023/03/04 00:12:59;;;;;;;5.72;4.03;;;;;;;;;;4486563;28;20081;-60
2023/03/04 00:15:09;;;;;;;5.38;4.20;;;;;;;;;;4488623;28;20129;-60
2023/03/04 00:17:20;;;;;;;4.95;3.92;;;;;;;;;;4491892;28;20040;-60
2023/03/04 00:19:30;;;;;;;4.68;4.00;;;;;;;;;;4488800;28;20409;-61
2023/03/04 00:21:41;;;;;;;5.20;4.13;;;;;;;;;;4493303;28;20040;-60
2023/03/04 00:23:51;;;;;;;5.80;4.50;;;;;;;;;;4490619;28;20148;-60
2023/03/04 00:26:01;;;;;;;5.55;4.40;;;;;;;;;;4492748;28;20524;-61
2023/03/04 00:28:12;;;;;;;5.55;4.13;;;;;;;;;;4490789;28;20700;-60
2023/03/04 00:30:22;;;;;;;5.32;4.30;;;;;;;;;;4489988;28;20049;-60
2023/03/04 00:32:33;;;;;;;5.03;4.20;;;;;;;;;;4487766;28;20022;-60
2023/03/04 00:34:43;;;;;;;4.63;3.97;;;;;;;;;;4488383;28;20046;-60
2023/03/04 00:36:59;;;;;;;5.65;4.10;;;;;;;;;;4487880;28;20045;-60
2023/03/04 00:39:11;;;;;;;5.28;4.15;;;;;;;;;;4487705;28;20042;-60
2023/03/04 00:41:21;;;;;;;5.05;4.18;;;;;;;;;;4489144;28;20042;-61
2023/03/04 00:43:31;;;;;;;4.88;3.88;;;;;;;;;;4489718;28;20038;-60
2023/03/04 00:45:41;;;;;;;5.22;3.97;;;;;;;;;;4486467;28;20674;-61
2023/03/04 00:47:52;;;;;;;5.25;3.85;;;;;;;;;;4496155;28;20695;-60
2023/03/04 00:50:02;;;;;;;5.82;4.13;;;;;;;;;;4490551;28;20045;-60
2023/03/04 00:52:13;;;;;;;4.85;3.92;;;;;;;;;;4489052;28;20037;-60
2023/03/04 00:54:23;;;;;;;5.20;4.03;;;;;;;;;;4489608;28;20455;-61
2023/03/04 00:56:33;;;;;;;5.15;3.55;;;;;;;;;;4486413;28;20120;-60
2023/03/04 00:58:44;;;;;;;4.82;3.78;;;;;;;;;;4488853;28;20046;-60
2023/03/04 01:00:54;;;;;;;4.03;3.15;;;;;;;;;;4489254;28;20030;-60
2023/03/04 01:03:04;;;;;;;3.80;3.40;;;;;;;;;;4489330;28;20065;-61
2023/03/04 01:05:15;;;;;;;4.30;3.33;;;;;;;;;;4486264;28;20202;-60
2023/03/04 01:07:25;;;;;;;4.57;3.80;;;;;;;;;;4488028;28;20070;-60
2023/03/04 01:09:35;;;;;;;4.22;3.15;;;;;;;;;;4492447;28;20141;-61
2023/03/04 01:11:46;;;;;;;4.70;3.45;;;;;;;;;;4490385;28;20476;-60
2023/03/04 01:13:56;;;;;;;3.92;3.17;;;;;;;;;;4488775;28;20046;-60
2023/03/04 01:16:07;;;;;;;4.88;3.35;;;;;;;;;;4489358;28;20045;-60
2023/03/04 01:18:17;;;;;;;4.32;3.38;;;;;;;;;;4486786;28;20045;-59
2023/03/04 01:20:27;;;;;;;4.78;3.70;;;;;;;;;;4490091;28;20629;-60
2023/03/04 01:22:38;;;;;;;4.35;3.30;;;;;;;;;;4492138;28;20058;-60
2023/03/04 01:24:48;;;;;;;4.35;3.58;;;;;;;;;;4500907;28;20065;-61
2023/03/04 01:26:58;;;;;;;4.57;3.42;;;;;;;;;;4492768;28;20034;-60
2023/03/04 01:29:09;;;;;;;4.68;3.60;;;;;;;;;;4492014;28;20038;-60
2023/03/04 01:31:19;;;;;;;3.85;3.20;;;;;;;;;;4502587;28;20029;-60
2023/03/04 01:33:30;;;;;;;4.45;3.30;;;;;;;;;;4491933;28;20584;-60
2023/03/04 01:35:40;;;;;;;4.43;3.08;;;;;;;;;;4490291;28;20033;-60
2023/03/04 01:37:50;;;;;;;3.85;3.28;;;;;;;;;;4490241;28;20513;-60
2023/03/04 01:40:01;;;;;;;4.00;3.10;;;;;;;;;;4492584;28;20434;-60
2023/03/04 01:42:19;;;;;;;3.90;3.10;;;;;;;;;;4490006;28;20046;-60
2023/03/04 01:44:29;;;;;;;4.68;3.42;;;;;;;;;;4490500;28;20117;-60
2023/03/04 01:46:42;;;;;;;4.55;3.42;;;;;;;;;;4493060;28;20045;-60
2023/03/04 01:48:53;;;;;;;4.10;3.08;;;;;;;;;;4492496;28;20223;-60
2023/03/04 01:51:04;;;;;;;4.32;3.30;;;;;;;;;;4489629;28;20108;-60
2023/03/04 01:53:18;;;;;;;3.63;2.70;;;;;;;;;;4506768;28;20071;-60
2023/03/04 01:55:28;;;;;;;3.83;2.88;;;;;;;;;;4490953;28;20158;-60
2023/03/04 01:57:39;;;;;;;4.90;2.95;;;;;;;;;;4491046;28;20048;-60
2023/03/04 02:00:12;;;;;;;3.92;2.95;;;;;;;;;;4491631;28;20560;-60
2023/03/04 02:02:24;;;;;;;3.70;2.92;;;;;;;;;;4483773;28;20053;-60
2023/03/04 02:04:34;;;;;;;3.40;2.63;;;;;;;;;;4490835;28;20038;-60
2023/03/04 02:06:45;;;;;;;3.40;2.75;;;;;;;;;;4490881;28;20533;-60
2023/03/04 02:08:56;;;;;;;3.90;2.85;;;;;;;;;;4492284;28;20022;-60
2023/03/04 02:11:06;;;;;;;4.38;2.63;;;;;;;;;;4506909;28;20038;-59
2023/03/04 02:13:17;;;;;;;3.45;2.50;;;;;;;;;;4493279;28;20041;-60
2023/03/04 02:15:28;;;;;;;4.07;2.30;;;;;;;;;;4490436;28;20057;-60
2023/03/04 02:17:39;;;;;;;3.40;2.15;;;;;;;;;;4489759;28;20536;-61
2023/03/04 02:20:00;;;;;;;3.20;2.30;;;;;;;;;;4493016;28;20438;-60
2023/03/04 02:22:10;;;;;;;3.85;2.70;;;;;;;;;;4490153;28;20655;-59
2023/03/04 02:24:30;;;;;;;3.88;2.67;;;;;;;;;;4491544;28;20484;-60
2023/03/04 02:26:42;;;;;;;2.85;2.35;;;;;;;;;;4480531;28;20880;-60
2023/03/04 02:28:56;;;;;;;3.95;2.72;;;;;;;;;;4488766;28;20038;-59
2023/03/04 02:31:16;;;;;;;3.33;2.50;;;;;;;;;;4490612;28;20139;-59
2023/03/04 02:33:26;;;;;;;3.58;2.60;;;;;;;;;;4502571;28;20068;-59
2023/03/04 02:35:36;;;;;;;2.88;2.20;;;;;;;;;;4491454;28;20073;-59
2023/03/04 02:37:47;;;;;;;4.20;2.42;;;;;;;;;;4475060;28;20044;-58
2023/03/04 02:39:58;;;;;;;2.88;2.20;;;;;;;;;;4488275;28;20038;-60
2023/03/04 02:42:09;;;;;;;2.72;2.20;;;;;;;;;;4474114;28;20071;-60
2023/03/04 02:44:22;;;;;;;4.13;2.35;;;;;;;;;;4489961;28;20883;-58
2023/03/04 02:46:32;;;;;;;2.95;2.20;;;;;;;;;;4488372;28;20053;-59
2023/03/04 02:48:42;;;;;;;3.40;2.40;;;;;;;;;;4489826;28;20026;-61
2023/03/04 02:50:53;;;;;;;2.92;2.38;;;;;;;;;;4490758;28;20045;-60
2023/03/04 02:53:04;;;;;;;2.65;2.05;;;;;;;;;;4489845;28;20090;-60
2023/03/04 02:55:14;;;;;;;2.47;1.90;;;;;;;;;;4505957;28;20044;-59
2023/03/04 02:57:24;;;;;;;3.10;1.98;;;;;;;;;;4498221;28;20044;-60
2023/03/04 02:59:38;;;;;;;2.42;1.90;;;;;;;;;;4491088;28;20041;-59
2023/03/04 03:01:49;;;;;;;3.05;1.98;;;;;;;;;;4487403;28;20038;-60
2023/03/04 03:04:00;;;;;;;2.50;1.80;;;;;;;;;;4489995;28;20042;-60
2023/03/04 03:06:10;;;;;;;3.35;1.70;;;;;;;;;;4488566;28;20420;-59
2023/03/04 03:08:21;;;;;;;2.72;1.83;;;;;;;;;;4487983;28;20084;-61
2023/03/04 03:10:31;;;;;;;2.53;1.65;;;;;;;;;;4492569;28;20049;-59
2023/03/04 03:12:42;;;;;;;2.90;1.98;;;;;;;;;;4491699;28;20779;-58
2023/03/04 03:14:52;;;;;;;2.65;2.10;;;;;;;;;;4492277;28;20091;-59
2023/03/04 03:17:04;;;;;;;2.63;1.80;;;;;;;;;;4490618;28;20076;-60
2023/03/04 03:19:15;;;;;;;2.17;1.42;;;;;;;;;;4491748;28;20156;-60
2023/03/04 03:21:26;;;;;;;2.17;1.70;;;;;;;;;;4476330;28;20034;-60
2023/03/04 03:23:36;;;;;;;3.17;1.70;;;;;;;;;;4488937;28;20106;-60
2023/03/04 03:25:46;;;;;;;3.65;1.80;;;;;;;;;;4486716;28;20042;-59
2023/03/04 03:27:57;;;;;;;2.95;1.75;;;;;;;;;;4491524;28;20038;-60
2023/03/04 03:30:09;;;;;;;2.65;1.77;;;;;;;;;;4490335;28;20038;-58
2023/03/04 03:32:20;;;;;;;2.88;1.50;;;;;;;;;;4481115;28;20649;-60
2023/03/04 03:34:34;;;;;;;2.33;1.60;;;;;;;;;;4489365;28;20046;-59
2023/03/04 03:36:44;;;;;;;2.38;1.50;;;;;;;;;;4489166;28;20034;-59
2023/03/04 03:38:55;;;;;;;2.47;1.40;;;;;;;;;;4496983;28;20068;-60
2023/03/04 03:41:05;;;;;;;2.92;1.50;;;;;;;;;;4489755;28;20046;-59
2023/03/04 03:43:15;;;;;;;2.05;1.30;;;;;;;;;;4489385;28;20034;-59
2023/03/04 03:45:25;;;;;;;2.17;1.40;;;;;;;;;;4487356;28;20054;-60
2023/03/04 03:47:36;;;;;;;1.52;1.23;;;;;;;;;;4488350;28;20037;-60
2023/03/04 03:49:46;;;;;;;1.90;1.10;;;;;;;;;;4491196;28;20025;-59
2023/03/04 03:51:56;;;;;;;1.80;1.05;;;;;;;;;;4489619;28;20041;-59
2023/03/04 03:54:07;;;;;;;1.63;1.10;;;;;;;;;;4490699;28;20121;-60
2023/03/04 03:56:17;;;;;;;2.63;1.20;;;;;;;;;;4489882;28;20026;-59
2023/03/04 03:58:28;;;;;;;2.58;1.35;;;;;;;;;;4481764;28;20054;-60
2023/03/04 04:00:38;;;;;;;1.63;1.00;;;;;;;;;;4489745;28;20038;-60
2023/03/04 04:02:48;;;;;;;2.05;1.20;;;;;;;;;;4488773;28;20046;-59
2023/03/04 04:04:58;;;;;;;2.17;1.00;;;;;;;;;;4489580;28;20038;-60
2023/03/04 04:07:09;;;;;;;2.38;1.20;;;;;;;;;;4492265;28;20042;-59
2023/03/04 04:09:19;;;;;;;2.17;1.05;;;;;;;;;;4488372;28;20030;-60
2023/03/04 04:11:29;;;;;;;2.67;1.10;;;;;;;;;;4486841;28;20044;-59
2023/03/04 04:13:40;;;;;;;2.33;1.00;;;;;;;;;;4488207;28;20440;-60
2023/03/04 04:15:51;;;;;;;2.47;1.10;;;;;;;;;;4487620;28;20035;-60
2023/03/04 04:18:01;;;;;;;1.30;0.90;;;;;;;;;;4488823;28;20383;-60
2023/03/04 04:20:12;;;;;;;1.60;0.70;;;;;;;;;;4485895;28;20068;-59
2023/03/04 04:22:22;;;;;;;1.58;0.73;;;;;;;;;;4496689;28;20535;-60
2023/03/04 04:24:32;;;;;;;1.90;0.88;;;;;;;;;;4488719;28;20030;-60
2023/03/04 04:26:43;;;;;;;1.75;1.23;;;;;;;;;;4488914;28;20049;-60
2023/03/04 04:28:53;;;;;;;2.25;0.70;;;;;;;;;;4489210;28;20121;-60
2023/03/04 04:31:06;;;;;;;1.75;0.80;;;;;;;;;;4488974;28;20042;-59
2023/03/04 04:33:16;;;;;;;1.70;0.82;;;;;;;;;;4488904;28;20128;-60
2023/03/04 04:35:27;;;;;;;1.90;0.70;;;;;;;;;;4488108;28;20137;-60
2023/03/04 04:37:37;;;;;;;2.08;0.80;;;;;;;;;;4489590;28;20448;-60
2023/03/04 04:39:47;;;;;;;2.25;0.80;;;;;;;;;;4490164;28;20034;-60
2023/03/04 04:41:58;;;;;;;1.80;0.90;;;;;;;;;;4487654;28;20069;-60
2023/03/04 04:44:09;;;;;;;1.38;0.90;;;;;;;;;;4487844;28;20038;-60
2023/03/04 04:46:20;;;;;;;1.00;0.70;;;;;;;;;;4489743;28;20156;-60
2023/03/04 04:48:30;;;;;;;1.38;0.82;;;;;;;;;;4486698;28;20112;-61
2023/03/04 04:50:40;;;;;;;1.75;0.77;;;;;;;;;;4488136;28;20058;-60
2023/03/04 04:52:51;;;;;;;1.58;0.90;;;;;;;;;;4488338;28;20029;-60
2023/03/04 04:55:02;;;;;;;1.25;0.90;;;;;;;;;;4488284;28;20038;-60
2023/03/04 04:57:12;;;;;;;2.30;0.90;;;;;;;;;;4488426;28;20592;-60
2023/03/04 04:59:22;;;;;;;1.63;0.80;;;;;;;;;;4489760;28;20900;-60
2023/03/04 05:01:33;;;;;;;1.95;1.10;;;;;;;;;;4489727;28;20823;-60
2023/03/04 05:03:43;;;;;;;1.38;0.90;;;;;;;;;;4490453;28;20045;-60
2023/03/04 05:05:54;;;;;;;1.33;0.90;;;;;;;;;;4495904;28;20077;-60
2023/03/04 05:08:04;;;;;;;1.33;0.85;;;;;;;;;;4487910;28;20041;-60
2023/03/04 05:10:14;;;;;;;1.27;0.90;;;;;;;;;;4488857;28;20387;-60
2023/03/04 05:12:25;;;;;;;1.77;1.00;;;;;;;;;;4488855;28;20065;-59
2023/03/04 05:14:35;;;;;;;1.17;1.00;;;;;;;;;;4487664;28;20066;-59
2023/03/04 05:16:45;;;;;;;1.30;0.80;;;;;;;;;;4486964;28;20128;-60
2023/03/04 05:18:56;;;;;;;2.05;1.02;;;;;;;;;;4486236;28;20485;-60
2023/03/04 05:21:06;;;;;;;1.55;0.95;;;;;;;;;;4486316;28;20045;-60
2023/03/04 05:23:16;;;;;;;2.03;0.90;;;;;;;;;;4488712;28;20856;-60
2023/03/04 05:25:27;;;;;;;1.63;0.80;;;;;;;;;;4488267;28;20085;-60
2023/03/04 05:27:37;;;;;;;1.10;0.88;;;;;;;;;;4488723;28;20091;-60
2023/03/04 05:29:47;;;;;;;1.42;0.75;;;;;;;;;;4487830;28;20046;-60
2023/03/04 05:31:58;;;;;;;2.00;1.10;;;;;;;;;;4487654;28;20061;-60
2023/03/04 05:34:08;;;;;;;1.83;1.17;;;;;;;;;;4486688;28;20838;-60
2023/03/04 05:36:18;;;;;;;2.17;1.10;;;;;;;;;;4491250;28;20516;-60
2023/03/04 05:38:29;;;;;;;1.10;0.90;;;;;;;;;;4488202;28;20752;-60
2023/03/04 05:40:39;;;;;;;1.23;0.85;;;;;;;;;;4486569;28;20034;-59
2023/03/04 05:42:50;;;;;;;2.17;1.00;;;;;;;;;;4486815;28;20034;-60
2023/03/04 05:45:00;;;;;;;2.53;1.10;;;;;;;;;;4487744;28;20916;-60
2023/03/04 05:47:10;;;;;;;1.52;0.88;;;;;;;;;;4488432;28;20034;-60
2023/03/04 05:49:21;;;;;;;1.45;0.88;;;;;;;;;;4489547;28;20038;-59
2023/03/04 05:51:31;;;;;;;1.63;1.00;;;;;;;;;;4491053;28;20042;-60
2023/03/04 05:53:41;;;;;;;1.42;0.98;;;;;;;;;;4487548;28;20140;-60
2023/03/04 05:55:52;;;;;;;1.75;0.85;;;;;;;;;;4490320;28;20041;-60
2023/03/04 05:58:02;;;;;;;1.48;0.80;;;;;;;;;;4489671;28;20161;-60
2023/03/04 06:00:13;;;;;;;1.02;0.77;;;;;;;;;;4488125;28;20062;-60
2023/03/04 06:02:23;;;;;;;1.65;0.98;;;;;;;;;;4487312;28;20042;-60
2023/03/04 06:04:34;;;;;;;1.48;0.88;;;;;;;;;;4486945;28;20034;-61
2023/03/04 06:06:46;;;;;;;0.98;0.70;;;;;;;;;;4487928;28;20042;-60
2023/03/04 06:08:56;;;;;;;1.98;0.90;;;;;;;;;;4486329;28;20117;-60
2023/03/04 06:11:06;;;;;;;1.00;0.70;;;;;;;;;;4489015;28;20090;-60
2023/03/04 06:13:17;;;;;;;1.83;0.70;;;;;;;;;;4489885;28;20042;-59
2023/03/04 06:20:07;;;;;;;1.10;0.70;;;;;;;;;;4522939;28;20111;-61
2023/03/04 06:22:17;;;;;;;2.50;0.75;;;;;;;;;;4527447;28;20037;-61
2023/03/04 06:24:28;;;;;;;1.65;0.63;;;;;;;;;;4524605;28;20041;-61
2023/03/04 06:26:38;;;;;;;1.73;0.70;;;;;;;;;;4525149;28;20047;-61
2023/03/04 06:28:48;;;;;;;0.70;0.50;;;;;;;;;;4525767;28;20040;-61
2023/03/04 06:30:59;;;;;;;0.85;0.50;;;;;;;;;;4525858;28;20034;-62
2023/03/04 06:33:09;;;;;;;1.52;0.50;;;;;;;;;;4523981;28;20029;-66
2023/03/04 06:35:19;;;;;;;1.38;0.63;;;;;;;;;;4525396;28;20041;-63
2023/03/04 06:37:30;;;;;;;1.48;0.63;;;;;;;;;;4526146;28;20735;-63
2023/03/04 06:39:40;;;;;;;1.15;0.70;;;;;;;;;;4526134;28;20412;-63
2023/03/04 06:41:50;;;;;;;1.45;0.63;;;;;;;;;;4525159;28;20379;-62
2023/03/04 06:44:00;;;;;;;0.93;0.57;;;;;;;;;;4526442;28;20025;-62
2023/03/04 06:46:11;;;;;;;1.02;0.60;;;;;;;;;;4525080;28;20461;-62
2023/03/04 06:48:21;;;;;;;0.90;0.50;;;;;;;;;;4523899;28;20120;-63
2023/03/04 06:50:31;;;;;;;0.90;0.47;;;;;;;;;;4524653;28;20541;-62
2023/03/04 06:52:42;;;;;;;0.75;0.50;;;;;;;;;;4522905;28;20616;-61
2023/03/04 06:54:52;;;;;;;1.65;0.50;;;;;;;;;;4523344;28;20108;-62
2023/03/04 06:57:02;;;;;;;0.73;0.50;;;;;;;;;;4524873;28;20041;-62
2023/03/04 06:59:13;;;;;;;1.38;0.60;;;;;;;;;;4525375;28;20057;-62
2023/03/04 07:01:24;;;;;;;1.05;0.50;;;;;;;;;;4523179;28;20041;-62
2023/03/04 07:03:35;;;;;;;0.70;0.47;;;;;;;;;;4523357;28;20025;-60
2023/03/04 07:05:45;;;;;;;1.13;0.60;;;;;;;;;;4523196;28;20041;-60
2023/03/04 07:07:55;;;;;;;1.10;0.52;;;;;;;;;;4522537;28;20033;-60
2023/03/04 07:10:06;;;;;;;1.20;0.57;;;;;;;;;;4523763;28;20048;-60
2023/03/04 07:12:16;;;;;;;1.00;0.70;;;;;;;;;;4520678;28;20037;-61
2023/03/04 07:14:26;;;;;;;1.20;0.70;;;;;;;;;;4522524;28;20124;-61
2023/03/04 07:16:37;;;;;;;1.05;0.70;;;;;;;;;;4524517;28;20107;-62
2023/03/04 07:18:48;;;;;;;1.00;0.65;;;;;;;;;;4520835;28;20084;-61
2023/03/04 07:20:58;;;;;;;1.00;0.60;;;;;;;;;;4522950;28;20047;-62
2023/03/04 07:23:08;;;;;;;1.08;0.55;;;;;;;;;;4508803;28;20064;-62
2023/03/04 07:25:19;;;;;;;1.20;0.70;;;;;;;;;;4525296;28;20037;-62
2023/03/04 07:27:29;;;;;;;0.40;0.40;;;;;;;;;;4522331;28;20049;-60
2023/03/04 07:29:39;;;;;;;0.80;0.50;;;;;;;;;;4522080;28;20036;-62
2023/03/04 07:31:49;;;;;;;1.08;0.60;;;;;;;;;;4524508;28;20046;-62
2023/03/04 07:34:01;;;;;;;1.13;0.70;;;;;;;;;;4522295;28;20034;-62
2023/03/04 07:36:13;;;;;;;0.93;0.60;;;;;;;;;;4524427;28;20051;-62
2023/03/04 07:38:24;;;;;;;1.23;0.55;;;;;;;;;;4523307;28;20132;-62
2023/03/04 07:40:34;;;;;;;1.42;0.60;;;;;;;;;;4520926;28;20036;-62
2023/03/04 07:42:48;;;;;;;1.30;0.70;;;;;;;;;;4523880;28;20084;-62
2023/03/04 07:45:00;;;;;;;0.90;0.50;;;;;;;;;;4522849;28;20040;-62
2023/03/04 07:47:10;;;;;;;0.90;0.50;;;;;;;;;;4522150;28;20042;-62
2023/03/04 07:49:21;;;;;;;1.27;0.55;;;;;;;;;;4524034;28;20041;-61
2023/03/04 07:51:31;;;;;;;0.60;0.38;;;;;;;;;;4524398;28;20501;-62
2023/03/04 07:53:43;;;;;;;0.63;0.40;;;;;;;;;;4524040;28;20048;-62
2023/03/04 07:55:53;;;;;;;0.85;0.40;;;;;;;;;;4540901;28;20036;-62
2023/03/04 07:58:03;;;;;;;0.60;0.50;;;;;;;;;;4526526;28;20048;-61
2023/03/04 08:00:15;;;;;;;1.05;0.50;;;;;;;;;;4526980;28;20072;-62
2023/03/04 08:02:25;;;;;;;1.15;0.50;;;;;;;;;;4523820;28;20150;-63
2023/03/04 08:04:36;;;;;;;1.17;0.50;;;;;;;;;;4522647;28;20105;-61
2023/03/04 08:06:47;;;;;;;0.60;0.40;;;;;;;;;;4523313;28;20477;-61
2023/03/04 08:08:59;;;;;;;0.73;0.40;;;;;;;;;;4523246;28;20556;-62
2023/03/04 08:11:11;;;;;;;0.82;0.47;;;;;;;;;;4523099;28;20037;-63
2023/03/04 08:13:21;;;;;;;1.30;0.60;;;;;;;;;;4523872;28;20072;-62
2023/03/04 08:15:33;;;;;;;0.52;0.40;;;;;;;;;;4523424;28;20030;-61
2023/03/04 08:17:44;;;;;;;0.93;0.60;;;;;;;;;;4523712;28;20037;-62
2023/03/04 08:19:54;;;;;;;0.75;0.50;;;;;;;;;;4522533;28;20025;-62
2023/03/04 08:22:05;;;;;;;0.70;0.60;;;;;;;;;;4524936;28;20041;-61
2023/03/04 08:24:15;;;;;;;0.82;0.57;;;;;;;;;;4523224;28;20037;-61
2023/03/04 08:26:30;;;;;;;0.75;0.50;;;;;;;;;;4523577;28;20038;-62
2023/03/04 08:28:40;;;;;;;1.20;0.60;;;;;;;;;;4523749;28;20975;-62
2023/03/04 08:30:51;;;;;;;0.85;0.65;;;;;;;;;;4523434;28;20607;-63
2023/03/04 08:33:02;;;;;;;1.17;0.60;;;;;;;;;;4520752;28;20029;-63
2023/03/04 08:35:12;;;;;;;0.63;0.50;;;;;;;;;;4524513;28;20037;-60
2023/03/04 08:37:23;;;;;;;1.15;0.63;;;;;;;;;;4522538;28;20071;-61
2023/03/04 08:39:34;;;;;;;0.73;0.60;;;;;;;;;;4522170;28;20068;-60
2023/03/04 08:41:45;;;;;;;1.33;0.60;;;;;;;;;;4526160;28;21175;-61
2023/03/04 08:43:56;;;;;;;0.40;0.30;;;;;;;;;;4523043;28;20136;-61
2023/03/04 08:46:06;;;;;;;1.08;0.50;;;;;;;;;;4522475;28;20037;-62
2023/03/04 08:48:17;;;;;;;0.50;0.40;;;;;;;;;;4523785;28;20449;-60
2023/03/04 08:50:27;;;;;;;2.10;0.40;;;;;;;;;;4523566;28;20494;-62
2023/03/04 08:52:38;;;;;;;0.80;0.50;;;;;;;;;;4521862;28;20524;-61
2023/03/04 08:54:48;;;;;;;0.50;0.40;;;;;;;;;;4520674;28;20072;-62
2023/03/04 08:56:59;;;;;;;0.80;0.45;;;;;;;;;;4522000;28;20069;-61
2023/03/04 08:59:09;;;;;;;0.60;0.50;;;;;;;;;;4523537;28;20029;-62
2023/03/04 09:01:19;;;;;;;0.50;0.40;;;;;;;;;;4523996;28;20128;-61
2023/03/04 09:03:30;;;;;;;0.65;0.40;;;;;;;;;;4521432;28;21141;-62
2023/03/04 09:05:40;;;;;;;0.88;0.40;;;;;;;;;;4524152;28;20102;-62
2023/03/04 09:07:51;;;;;;;1.08;0.50;;;;;;;;;;4522772;28;20136;-61
2023/03/04 09:10:01;;;;;;;0.50;0.40;;;;;;;;;;4524900;28;20041;-61
2023/03/04 09:12:11;;;;;;;0.32;0.30;;;;;;;;;;4521618;28;20034;-61
2023/03/04 09:14:21;;;;;;;0.77;0.38;;;;;;;;;;4522518;28;20128;-62
2023/03/04 09:16:32;;;;;;;0.30;0.20;;;;;;;;;;4522536;28;20104;-61
2023/03/04 09:18:42;;;;;;;0.70;0.40;;;;;;;;;;4522655;28;20049;-61
2023/03/04 09:20:52;;;;;;;0.82;0.40;;;;;;;;;;4522270;28;20754;-61
2023/03/04 09:23:03;;;;;;;0.95;0.40;;;;;;;;;;4520986;28;20045;-61
2023/03/04 09:25:16;;;;;;;1.02;0.50;;;;;;;;;;4522573;28;20705;-62
2023/03/04 09:27:27;;;;;;;0.55;0.40;;;;;;;;;;4523264;28;20037;-61
2023/03/04 09:29:37;;;;;;;0.40;0.40;;;;;;;;;;4521376;28;20041;-61
2023/03/04 09:31:47;;;;;;;0.73;0.50;;;;;;;;;;4524520;28;20076;-60
2023/03/04 09:33:58;;;;;;;0.40;0.40;;;;;;;;;;4522075;28;20041;-60
2023/03/04 09:36:10;;;;;;;0.63;0.40;;;;;;;;;;4519340;28;20568;-61
2023/03/04 09:38:23;;;;;;;0.88;0.50;;;;;;;;;;4520636;28;20051;-61
2023/03/04 09:40:37;;;;;;;0.40;0.40;;;;;;;;;;4522289;28;20084;-61
2023/03/04 09:42:51;;;;;;;0.45;0.30;;;;;;;;;;4520821;28;20072;-61
2023/03/04 09:45:04;;;;;;;0.77;0.40;;;;;;;;;;4525483;28;20135;-62
2023/03/04 09:47:15;;;;;;;0.85;0.50;;;;;;;;;;4527145;28;20373;-62
2023/03/04 09:49:26;;;;;;;1.00;0.50;;;;;;;;;;4528072;28;20820;-61
2023/03/04 09:51:55;;;;;;;0.65;0.47;;;;;;;;;;4526722;28;20079;-59
2023/03/04 09:54:24;;;;;;;0.40;0.40;;;;;;;;;;4540591;28;20099;-59
2023/03/04 09:56:36;;;;;;;0.40;0.40;;;;;;;;;;4524382;28;21250;-59
2023/03/04 09:58:49;;;;;;;1.25;0.73;;;;;;;;;;4525313;28;20730;-59
2023/03/04 10:01:09;;;;;;;0.70;0.43;;;;;;;;;;4524930;28;20037;-59
2023/03/04 10:03:22;;;;;;;0.80;0.40;;;;;;;;;;4524101;28;20044;-59
2023/03/04 10:05:35;;;;;;;0.55;0.35;;;;;;;;;;4524294;28;20045;-60
2023/03/04 10:07:48;;;;;;;0.70;0.47;;;;;;;;;;4525310;28;20643;-59
2023/03/04 10:10:05;;;;;;;0.40;0.40;;;;;;;;;;4528633;28;20053;-60
2023/03/04 10:12:16;;;;;;;;;;;;;;;;;;4526597;28;20033;-60
2023/03/04 10:14:46;;;;;;;0.65;0.30;;;;;;;;;;4526350;28;20460;-59
2023/03/04 10:16:59;;;;;;;0.95;0.30;;;;;;;;;;4525347;28;20599;-60
2023/03/04 10:19:12;;;;;;;0.80;0.43;;;;;;;;;;4526175;28;20639;-60
2023/03/04 10:21:30;;;;;;;0.70;0.50;;;;;;;;;;4525548;28;20030;-60
2023/03/04 10:23:41;;;;;;;0.90;0.60;;;;;;;;;;4524270;28;20043;-60
2023/03/04 10:25:53;;;;;;;0.50;0.50;;;;;;;;;;4525671;28;20104;-59
2023/03/04 10:28:08;;;;;;;0.88;0.40;;;;;;;;;;4539784;28;20041;-61
2023/03/04 10:30:22;;;;;;;1.23;0.60;;;;;;;;;;4526967;28;20041;-58
2023/03/04 10:32:32;;;;;;;0.70;0.40;;;;;;;;;;4525135;28;20129;-60
2023/03/04 10:34:43;;;;;;;0.77;0.52;;;;;;;;;;4528464;28;20053;-61
2023/03/04 10:37:00;;;;;;;0.73;0.50;;;;;;;;;;4525086;28;20044;-61
2023/03/04 10:39:15;;;;;;;0.90;0.77;;;;;;;;;;4525961;28;20045;-62
2023/03/04 10:41:26;;;;;;;1.02;0.60;;;;;;;;;;4526453;28;20029;-61
2023/03/04 10:43:37;;;;;;;0.63;0.50;;;;;;;;;;4523814;28;20037;-60
2023/03/04 10:45:48;;;;;;;0.88;0.50;;;;;;;;;;4525378;28;20483;-60
2023/03/04 10:47:58;;;;;;;0.50;0.50;;;;;;;;;;4526335;28;20029;-61
2023/03/04 10:50:19;;;;;;;0.52;0.45;;;;;;;;;;4526201;28;20045;-60
2023/03/04 10:52:33;;;;;;;0.90;0.70;;;;;;;;;;4524823;28;20120;-60
2023/03/04 10:54:48;;;;;;;0.70;0.60;;;;;;;;;;4524591;28;20054;-61
2023/03/04 10:57:03;;;;;;;0.82;0.60;;;;;;;;;;4523477;28;20049;-60
2023/03/04 10:59:32;;;;;;;0.60;0.60;;;;;;;;;;4524431;28;20033;-60
2023/03/04 11:01:42;;;;;;;0.70;0.70;;;;;;;;;;4526659;28;20056;-60
2023/03/04 11:03:53;;;;;;;0.75;0.55;;;;;;;;;;4523451;28;20353;-60
2023/03/04 11:06:04;;;;;;;0.90;0.70;;;;;;;;;;4523219;28;20159;-61
2023/03/04 11:08:19;;;;;;;0.70;0.60;;;;;;;;;;4524160;28;20029;-60
2023/03/04 11:10:36;;;;;;;0.60;0.60;;;;;;;;;;4524068;28;20053;-60
2023/03/04 11:12:51;;;;;;;2.10;0.80;;;;;;;;;;4524640;28;20042;-60
2023/03/04 11:15:01;;;;;;;0.50;0.50;;;;;;;;;;4523064;28;20644;-61
2023/03/04 11:17:17;;;;;;;1.30;0.80;;;;;;;;;;4524644;28;20072;-61
2023/03/04 11:19:34;;;;;;;1.17;0.70;;;;;;;;;;4527045;28;20173;-60
2023/03/04 11:21:46;;;;;;;0.68;0.60;;;;;;;;;;4524081;28;20560;-60
2023/03/04 11:24:04;;;;;;;0.63;0.50;;;;;;;;;;4521478;28;20797;-60
2023/03/04 11:26:20;;;;;;;0.77;0.70;;;;;;;;;;4523668;28;20045;-60
2023/03/04 11:28:33;;;;;;;0.68;0.60;;;;;;;;;;4524036;28;20577;-60
2023/03/04 11:30:52;;;;;;;0.70;0.60;;;;;;;;;;4523482;28;20025;-60
2023/03/04 11:33:11;;;;;;;0.90;0.80;;;;;;;;;;4523368;28;20037;-60
2023/03/04 11:35:21;;;;;;;1.20;0.80;;;;;;;;;;4524595;28;20409;-60
2023/03/04 11:37:38;;;;;;;1.30;0.80;;;;;;;;;;4523645;28;20088;-60
2023/03/04 11:39:53;;;;;;;0.85;0.85;;;;;;;;;;4522805;28;20095;-59
2023/03/04 11:42:06;;;;;;;1.40;0.88;;;;;;;;;;4523572;28;20025;-60
2023/03/04 11:44:16;;;;;;;1.20;0.90;;;;;;;;;;4524399;28;20586;-60
2023/03/04 11:46:35;;;;;;;1.10;1.00;;;;;;;;;;4521622;28;20092;-60
2023/03/04 11:48:57;;;;;;;1.10;0.90;;;;;;;;;;4524095;28;20034;-60
2023/03/04 11:51:12;;;;;;;0.85;0.73;;;;;;;;;;4523380;28;20041;-60
2023/03/04 11:53:32;;;;;;;1.10;0.80;;;;;;;;;;4523140;28;20032;-60
2023/03/04 11:55:55;;;;;;;0.90;0.70;;;;;;;;;;4523603;28;20521;-60
2023/03/04 11:58:24;;;;;;;0.85;0.60;;;;;;;;;;4522384;28;20045;-60
2023/03/04 12:00:37;;;;;;;0.77;0.55;;;;;;;;;;4524561;28;20033;-59
2023/03/04 12:03:09;;;;;;;0.77;0.70;;;;;;;;;;4524153;28;20033;-61
2023/03/04 12:05:29;;;;;;;0.60;0.60;;;;;;;;;;4523183;28;20121;-60
2023/03/04 12:07:46;;;;;;;0.60;0.60;;;;;;;;;;4522489;28;20048;-60
2023/03/04 12:09:56;;;;;;;;;;;;;;;;;;4523690;28;20576;-60
2023/03/04 12:12:06;;;;;;;0.73;0.60;;;;;;;;;;4524302;28;21129;-59
2023/03/04 12:14:16;;;;;;;0.80;0.80;;;;;;;;;;4526121;28;20275;-61
2023/03/04 12:16:39;;;;;;;1.13;0.80;;;;;;;;;;4521691;28;20655;-60
2023/03/04 12:19:14;;;;;;;1.67;0.77;;;;;;;;;;4530394;28;20735;-60
2023/03/04 12:21:31;;;;;;;0.85;0.80;;;;;;;;;;4523772;28;20067;-60
2023/03/04 12:23:54;;;;;;;1.05;0.60;;;;;;;;;;4521567;28;20979;-60
2023/03/04 12:26:07;;;;;;;0.80;0.60;;;;;;;;;;4521326;28;20041;-60
2023/03/04 12:28:17;;;;;;;0.60;0.52;;;;;;;;;;4530175;28;21308;-60
2023/03/04 12:30:46;;;;;;;1.25;0.50;;;;;;;;;;4523859;28;20047;-60
2023/03/04 12:33:06;;;;;;;0.40;0.40;;;;;;;;;;4522915;28;20035;-60
2023/03/04 12:35:22;;;;;;;0.63;0.50;;;;;;;;;;4523503;28;20605;-60
2023/03/04 12:37:39;;;;;;;0.73;0.60;;;;;;;;;;4530953;28;20040;-59
2023/03/04 12:39:55;;;;;;;0.70;0.70;;;;;;;;;;4522418;28;20036;-61
2023/03/04 12:42:11;;;;;;;0.80;0.80;;;;;;;;;;4523910;28;20029;-61
2023/03/04 12:44:22;;;;;;;1.17;0.80;;;;;;;;;;4523674;28;20041;-59
2023/03/04 12:46:41;;;;;;;0.60;0.60;;;;;;;;;;4523414;28;20053;-60
2023/03/04 12:49:11;;;;;;;0.57;0.50;;;;;;;;;;4508689;28;20642;-60
2023/03/04 12:51:29;;;;;;;0.70;0.63;;;;;;;;;;4523190;28;20314;-60
2023/03/04 12:53:55;;;;;;;1.00;0.70;;;;;;;;;;4522707;28;20669;-60
2023/03/04 12:56:06;;;;;;;1.20;0.70;;;;;;;;;;4522300;28;20678;-60
2023/03/04 12:58:27;;;;;;;0.85;0.70;;;;;;;;;;4522355;28;20384;-61
2023/03/04 13:00:43;;;;;;;0.80;0.80;;;;;;;;;;4522200;28;20409;-60
2023/03/04 13:03:08;;;;;;;0.77;0.60;;;;;;;;;;4521069;28;20029;-60
2023/03/04 13:05:34;;;;;;;0.88;0.60;;;;;;;;;;4521907;28;20052;-60
2023/03/04 13:07:47;;;;;;;0.88;0.63;;;;;;;;;;4521861;28;20095;-60
2023/03/04 13:10:03;;;;;;;0.50;0.50;;;;;;;;;;4522900;28;20048;-61
2023/03/04 13:12:15;;;;;;;0.82;0.60;;;;;;;;;;4522252;28;20029;-60
2023/03/04 13:14:27;;;;;;;0.68;0.50;;;;;;;;;;4523365;28;20987;-61
2023/03/04 13:16:42;;;;;;;0.93;0.60;;;;;;;;;;4522258;28;20028;-60
2023/03/04 13:18:53;;;;;;;0.47;0.47;;;;;;;;;;4522435;28;20041;-60